sensor_id;sensor_type;location;lat;lon;timestamp;P1;durP1;ratioP1;P2;durP2;ratioP2
36283;SDS011;56085;48.910;9.478;2023-06-22T00:02:13;8.00;;;5.00;;
36283;SDS011;56085;48.910;9.478;2023-06-22T00:04:38;8.27;;;5.90;;
36283;SDS011;56085;48.910;9.478;2023-06-22T00:07:03;9.88;;;5.03;;
36283;SDS011;56085;48.910;9.478;2023-06-22T00:09:29;6.72;;;5.38;;
36283;SDS011;56085;48.910;9.478;2023-06-22T00:11:54;8.85;;;5.88;;
36283;SDS011;56085;48.910;9.478;2023-06-22T00:14:19;10.50;;;5.22;;
36283;SDS011;56085;48.910;9.478;2023-06-22T00:16:44;6.95;;;5.35;;
36283;SDS011;56085;48.910;9.478;2023-06-22T00:19:13;8.15;;;5.97;;
36283;SDS011;56085;48.910;9.478;2023-06-22T00:21:39;7.72;;;5.25;;
36283;SDS011;56085;48.910;9.478;2023-06-22T00:24:05;8.32;;;6.18;;
36283;SDS011;56085;48.910;9.478;2023-06-22T00:26:31;6.28;;;4.78;;
36283;SDS011;56085;48.910;9.478;2023-06-22T00:28:56;9.00;;;5.97;;
36283;SDS011;56085;48.910;9.478;2023-06-22T00:31:21;8.90;;;5.57;;
36283;SDS011;56085;48.910;9.478;2023-06-22T00:33:47;6.78;;;4.82;;
36283;SDS011;56085;48.910;9.478;2023-06-22T00:36:12;7.43;;;5.05;;
36283;SDS011;56085;48.910;9.478;2023-06-22T00:38:41;7.15;;;4.82;;
36283;SDS011;56085;48.910;9.478;2023-06-22T00:41:06;8.13;;;5.32;;
36283;SDS011;56085;48.910;9.478;2023-06-22T00:43:32;8.18;;;5.30;;
36283;SDS011;56085;48.910;9.478;2023-06-22T00:45:57;9.88;;;6.18;;
36283;SDS011;56085;48.910;9.478;2023-06-22T00:48:22;11.52;;;5.00;;
36283;SDS011;56085;48.910;9.478;2023-06-22T00:50:47;6.90;;;4.80;;
36283;SDS011;56085;48.910;9.478;2023-06-22T00:53:15;7.32;;;5.22;;
36283;SDS011;56085;48.910;9.478;2023-06-22T00:55:43;8.50;;;5.00;;
36283;SDS011;56085;48.910;9.478;2023-06-22T00:58:10;10.30;;;5.28;;
36283;SDS011;56085;48.910;9.478;2023-06-22T01:00:36;7.53;;;4.78;;
36283;SDS011;56085;48.910;9.478;2023-06-22T01:03:03;8.93;;;5.32;;
36283;SDS011;56085;48.910;9.478;2023-06-22T01:05:29;10.93;;;5.38;;
36283;SDS011;56085;48.910;9.478;2023-06-22T01:08:00;8.25;;;5.07;;
36283;SDS011;56085;48.910;9.478;2023-06-22T01:10:45;7.60;;;4.88;;
36283;SDS011;56085;48.910;9.478;2023-06-22T01:16:10;7.60;;;5.30;;
36283;SDS011;56085;48.910;9.478;2023-06-22T01:18:52;9.82;;;5.35;;
36283;SDS011;56085;48.910;9.478;2023-06-22T01:21:21;10.00;;;5.53;;
36283;SDS011;56085;48.910;9.478;2023-06-22T01:28:55;8.85;;;6.07;;
36283;SDS011;56085;48.910;9.478;2023-06-22T01:31:24;7.47;;;5.40;;
36283;SDS011;56085;48.910;9.478;2023-06-22T01:33:52;10.15;;;5.65;;
36283;SDS011;56085;48.910;9.478;2023-06-22T01:36:20;9.20;;;6.00;;
36283;SDS011;56085;48.910;9.478;2023-06-22T01:38:47;10.18;;;6.03;;
36283;SDS011;56085;48.910;9.478;2023-06-22T01:41:13;7.90;;;5.60;;
36283;SDS011;56085;48.910;9.478;2023-06-22T01:43:39;8.93;;;6.57;;
36283;SDS011;56085;48.910;9.478;2023-06-22T01:46:05;9.85;;;6.20;;
36283;SDS011;56085;48.910;9.478;2023-06-22T01:48:31;8.55;;;6.80;;
36283;SDS011;56085;48.910;9.478;2023-06-22T01:50:57;10.52;;;6.40;;
36283;SDS011;56085;48.910;9.478;2023-06-22T01:53:23;9.38;;;6.43;;
36283;SDS011;56085;48.910;9.478;2023-06-22T01:55:49;9.70;;;5.95;;
36283;SDS011;56085;48.910;9.478;2023-06-22T01:58:14;11.25;;;6.60;;
36283;SDS011;56085;48.910;9.478;2023-06-22T02:00:40;9.60;;;6.32;;
36283;SDS011;56085;48.910;9.478;2023-06-22T02:03:14;10.98;;;6.50;;
36283;SDS011;56085;48.910;9.478;2023-06-22T02:05:49;7.80;;;5.68;;
36283;SDS011;56085;48.910;9.478;2023-06-22T02:08:20;8.98;;;5.95;;
36283;SDS011;56085;48.910;9.478;2023-06-22T02:10:53;8.48;;;5.72;;
36283;SDS011;56085;48.910;9.478;2023-06-22T02:13:20;8.88;;;6.13;;
36283;SDS011;56085;48.910;9.478;2023-06-22T02:15:46;10.15;;;6.43;;
36283;SDS011;56085;48.910;9.478;2023-06-22T02:18:12;11.32;;;6.20;;
36283;SDS011;56085;48.910;9.478;2023-06-22T02:20:39;10.50;;;6.50;;
36283;SDS011;56085;48.910;9.478;2023-06-22T02:23:05;10.30;;;6.85;;
36283;SDS011;56085;48.910;9.478;2023-06-22T02:25:31;10.63;;;6.35;;
36283;SDS011;56085;48.910;9.478;2023-06-22T02:27:57;9.15;;;6.50;;
36283;SDS011;56085;48.910;9.478;2023-06-22T02:30:22;9.95;;;6.25;;
36283;SDS011;56085;48.910;9.478;2023-06-22T02:32:48;11.88;;;6.57;;
36283;SDS011;56085;48.910;9.478;2023-06-22T02:35:13;10.27;;;6.35;;
36283;SDS011;56085;48.910;9.478;2023-06-22T02:37:38;9.43;;;5.93;;
36283;SDS011;56085;48.910;9.478;2023-06-22T02:40:06;14.02;;;7.47;;
36283;SDS011;56085;48.910;9.478;2023-06-22T02:42:33;8.93;;;6.13;;
36283;SDS011;56085;48.910;9.478;2023-06-22T02:44:59;7.65;;;5.05;;
36283;SDS011;56085;48.910;9.478;2023-06-22T02:47:25;8.60;;;6.35;;
36283;SDS011;56085;48.910;9.478;2023-06-22T02:49:50;10.32;;;6.22;;
36283;SDS011;56085;48.910;9.478;2023-06-22T02:52:16;8.80;;;6.82;;
36283;SDS011;56085;48.910;9.478;2023-06-22T02:54:41;8.13;;;6.00;;
36283;SDS011;56085;48.910;9.478;2023-06-22T02:57:06;8.27;;;5.68;;
36283;SDS011;56085;48.910;9.478;2023-06-22T02:59:32;7.78;;;5.57;;
36283;SDS011;56085;48.910;9.478;2023-06-22T03:01:57;8.27;;;6.10;;
36283;SDS011;56085;48.910;9.478;2023-06-22T03:04:22;6.50;;;5.38;;
36283;SDS011;56085;48.910;9.478;2023-06-22T03:06:47;11.40;;;6.28;;
36283;SDS011;56085;48.910;9.478;2023-06-22T03:09:16;8.77;;;6.13;;
36283;SDS011;56085;48.910;9.478;2023-06-22T03:11:42;8.63;;;6.00;;
36283;SDS011;56085;48.910;9.478;2023-06-22T03:14:07;10.73;;;5.47;;
36283;SDS011;56085;48.910;9.478;2023-06-22T03:16:33;8.07;;;5.53;;
36283;SDS011;56085;48.910;9.478;2023-06-22T03:18:58;9.27;;;6.68;;
36283;SDS011;56085;48.910;9.478;2023-06-22T03:21:28;8.27;;;6.15;;
36283;SDS011;56085;48.910;9.478;2023-06-22T03:23:53;10.05;;;6.47;;
36283;SDS011;56085;48.910;9.478;2023-06-22T03:26:19;9.55;;;6.50;;
36283;SDS011;56085;48.910;9.478;2023-06-22T03:28:44;10.85;;;7.38;;
36283;SDS011;56085;48.910;9.478;2023-06-22T03:31:10;9.40;;;6.90;;
36283;SDS011;56085;48.910;9.478;2023-06-22T03:33:35;10.10;;;6.32;;
36283;SDS011;56085;48.910;9.478;2023-06-22T03:36:00;9.52;;;7.50;;
36283;SDS011;56085;48.910;9.478;2023-06-22T03:38:26;9.05;;;6.57;;
36283;SDS011;56085;48.910;9.478;2023-06-22T03:40:51;7.50;;;6.07;;
36283;SDS011;56085;48.910;9.478;2023-06-22T03:43:16;11.55;;;7.72;;
36283;SDS011;56085;48.910;9.478;2023-06-22T03:45:41;14.38;;;7.93;;
36283;SDS011;56085;48.910;9.478;2023-06-22T03:48:07;10.00;;;7.28;;
36283;SDS011;56085;48.910;9.478;2023-06-22T03:50:32;9.98;;;6.70;;
36283;SDS011;56085;48.910;9.478;2023-06-22T03:52:57;9.20;;;6.72;;
36283;SDS011;56085;48.910;9.478;2023-06-22T03:55:23;9.38;;;8.20;;
36283;SDS011;56085;48.910;9.478;2023-06-22T03:57:48;9.77;;;6.85;;
36283;SDS011;56085;48.910;9.478;2023-06-22T04:00:13;9.57;;;7.00;;
36283;SDS011;56085;48.910;9.478;2023-06-22T04:02:40;11.73;;;7.47;;
36283;SDS011;56085;48.910;9.478;2023-06-22T04:05:06;8.77;;;6.70;;
36283;SDS011;56085;48.910;9.478;2023-06-22T04:07:32;12.15;;;7.72;;
36283;SDS011;56085;48.910;9.478;2023-06-22T04:09:58;9.30;;;7.10;;
36283;SDS011;56085;48.910;9.478;2023-06-22T04:12:23;10.20;;;7.18;;
36283;SDS011;56085;48.910;9.478;2023-06-22T04:14:48;11.80;;;7.18;;
36283;SDS011;56085;48.910;9.478;2023-06-22T04:17:14;11.90;;;7.45;;
36283;SDS011;56085;48.910;9.478;2023-06-22T04:19:40;9.68;;;7.18;;
36283;SDS011;56085;48.910;9.478;2023-06-22T04:22:05;10.43;;;7.00;;
36283;SDS011;56085;48.910;9.478;2023-06-22T04:24:35;9.77;;;6.88;;
36283;SDS011;56085;48.910;9.478;2023-06-22T04:27:00;9.20;;;6.82;;
36283;SDS011;56085;48.910;9.478;2023-06-22T04:29:27;12.35;;;7.50;;
36283;SDS011;56085;48.910;9.478;2023-06-22T04:31:54;9.48;;;6.05;;
36283;SDS011;56085;48.910;9.478;2023-06-22T04:34:22;8.15;;;6.43;;
36283;SDS011;56085;48.910;9.478;2023-06-22T04:36:48;11.13;;;6.72;;
36283;SDS011;56085;48.910;9.478;2023-06-22T04:39:14;8.90;;;6.88;;
36283;SDS011;56085;48.910;9.478;2023-06-22T04:41:40;10.68;;;6.72;;
36283;SDS011;56085;48.910;9.478;2023-06-22T04:44:11;10.73;;;6.97;;
36283;SDS011;56085;48.910;9.478;2023-06-22T04:46:38;8.38;;;6.53;;
36283;SDS011;56085;48.910;9.478;2023-06-22T04:49:09;8.27;;;6.30;;
36283;SDS011;56085;48.910;9.478;2023-06-22T04:51:41;12.43;;;7.45;;
36283;SDS011;56085;48.910;9.478;2023-06-22T04:54:07;9.35;;;6.38;;
36283;SDS011;56085;48.910;9.478;2023-06-22T04:56:33;10.18;;;6.60;;
36283;SDS011;56085;48.910;9.478;2023-06-22T04:58:59;10.02;;;6.57;;
36283;SDS011;56085;48.910;9.478;2023-06-22T05:01:25;12.18;;;6.47;;
36283;SDS011;56085;48.910;9.478;2023-06-22T05:03:50;9.20;;;6.28;;
36283;SDS011;56085;48.910;9.478;2023-06-22T05:06:20;9.35;;;6.38;;
36283;SDS011;56085;48.910;9.478;2023-06-22T05:08:46;11.02;;;6.40;;
36283;SDS011;56085;48.910;9.478;2023-06-22T05:11:12;6.57;;;5.15;;
36283;SDS011;56085;48.910;9.478;2023-06-22T05:13:37;6.72;;;5.40;;
36283;SDS011;56085;48.910;9.478;2023-06-22T05:16:02;8.27;;;6.07;;
36283;SDS011;56085;48.910;9.478;2023-06-22T05:18:28;8.98;;;5.40;;
36283;SDS011;56085;48.910;9.478;2023-06-22T05:20:54;13.93;;;6.10;;
36283;SDS011;56085;48.910;9.478;2023-06-22T05:23:19;8.55;;;5.90;;
36283;SDS011;56085;48.910;9.478;2023-06-22T05:25:45;8.98;;;6.38;;
36283;SDS011;56085;48.910;9.478;2023-06-22T05:28:10;10.75;;;5.72;;
36283;SDS011;56085;48.910;9.478;2023-06-22T05:30:36;8.75;;;5.78;;
36283;SDS011;56085;48.910;9.478;2023-06-22T05:33:02;7.78;;;4.72;;
36283;SDS011;56085;48.910;9.478;2023-06-22T05:35:27;7.55;;;4.75;;
36283;SDS011;56085;48.910;9.478;2023-06-22T05:37:52;8.65;;;5.38;;
36283;SDS011;56085;48.910;9.478;2023-06-22T05:40:17;9.45;;;5.28;;
36283;SDS011;56085;48.910;9.478;2023-06-22T05:42:43;7.90;;;4.80;;
36283;SDS011;56085;48.910;9.478;2023-06-22T05:45:08;8.95;;;4.95;;
36283;SDS011;56085;48.910;9.478;2023-06-22T05:47:34;7.47;;;5.50;;
36283;SDS011;56085;48.910;9.478;2023-06-22T05:49:59;8.80;;;4.70;;
36283;SDS011;56085;48.910;9.478;2023-06-22T05:52:25;6.40;;;4.78;;
36283;SDS011;56085;48.910;9.478;2023-06-22T05:54:50;8.43;;;5.25;;
36283;SDS011;56085;48.910;9.478;2023-06-22T05:57:15;10.88;;;5.63;;
36283;SDS011;56085;48.910;9.478;2023-06-22T05:59:40;6.40;;;4.97;;
36283;SDS011;56085;48.910;9.478;2023-06-22T06:02:06;7.90;;;4.90;;
36283;SDS011;56085;48.910;9.478;2023-06-22T06:04:31;7.72;;;4.85;;
36283;SDS011;56085;48.910;9.478;2023-06-22T06:06:56;8.73;;;4.15;;
36283;SDS011;56085;48.910;9.478;2023-06-22T06:09:22;6.18;;;4.85;;
36283;SDS011;56085;48.910;9.478;2023-06-22T06:11:47;8.27;;;4.85;;
36283;SDS011;56085;48.910;9.478;2023-06-22T06:14:12;8.70;;;4.50;;
36283;SDS011;56085;48.910;9.478;2023-06-22T06:16:38;7.40;;;4.63;;
36283;SDS011;56085;48.910;9.478;2023-06-22T06:19:03;9.10;;;4.57;;
36283;SDS011;56085;48.910;9.478;2023-06-22T06:21:28;6.63;;;4.30;;
36283;SDS011;56085;48.910;9.478;2023-06-22T06:23:54;7.10;;;5.18;;
36283;SDS011;56085;48.910;9.478;2023-06-22T06:26:19;7.90;;;4.72;;
36283;SDS011;56085;48.910;9.478;2023-06-22T06:28:52;6.35;;;4.82;;
36283;SDS011;56085;48.910;9.478;2023-06-22T06:31:18;5.88;;;4.20;;
36283;SDS011;56085;48.910;9.478;2023-06-22T06:33:43;8.77;;;5.50;;
36283;SDS011;56085;48.910;9.478;2023-06-22T06:36:08;9.32;;;4.68;;
36283;SDS011;56085;48.910;9.478;2023-06-22T06:38:33;5.88;;;4.03;;
36283;SDS011;56085;48.910;9.478;2023-06-22T06:40:59;8.67;;;4.87;;
36283;SDS011;56085;48.910;9.478;2023-06-22T06:43:24;6.40;;;4.50;;
36283;SDS011;56085;48.910;9.478;2023-06-22T06:45:50;7.20;;;4.95;;
36283;SDS011;56085;48.910;9.478;2023-06-22T06:48:16;5.93;;;4.43;;
36283;SDS011;56085;48.910;9.478;2023-06-22T06:50:42;8.60;;;4.93;;
36283;SDS011;56085;48.910;9.478;2023-06-22T06:53:08;6.15;;;4.20;;
36283;SDS011;56085;48.910;9.478;2023-06-22T06:55:34;6.40;;;4.65;;
36283;SDS011;56085;48.910;9.478;2023-06-22T06:57:59;7.75;;;5.22;;
36283;SDS011;56085;48.910;9.478;2023-06-22T07:00:25;7.43;;;5.00;;
36283;SDS011;56085;48.910;9.478;2023-06-22T07:02:51;7.07;;;4.38;;
36283;SDS011;56085;48.910;9.478;2023-06-22T07:05:17;5.85;;;4.43;;
36283;SDS011;56085;48.910;9.478;2023-06-22T07:07:42;6.45;;;4.65;;
36283;SDS011;56085;48.910;9.478;2023-06-22T07:10:08;8.07;;;5.70;;
36283;SDS011;56085;48.910;9.478;2023-06-22T07:12:34;9.90;;;6.88;;
36283;SDS011;56085;48.910;9.478;2023-06-22T07:15:03;7.90;;;5.13;;
36283;SDS011;56085;48.910;9.478;2023-06-22T07:17:30;12.17;;;5.00;;
36283;SDS011;56085;48.910;9.478;2023-06-22T07:19:55;7.63;;;4.03;;
36283;SDS011;56085;48.910;9.478;2023-06-22T07:22:20;8.55;;;4.82;;
36283;SDS011;56085;48.910;9.478;2023-06-22T07:24:45;5.50;;;3.90;;
36283;SDS011;56085;48.910;9.478;2023-06-22T07:27:11;6.20;;;4.20;;
36283;SDS011;56085;48.910;9.478;2023-06-22T07:29:37;7.85;;;4.28;;
36283;SDS011;56085;48.910;9.478;2023-06-22T07:32:04;7.47;;;3.78;;
36283;SDS011;56085;48.910;9.478;2023-06-22T07:34:30;8.18;;;4.32;;
36283;SDS011;56085;48.910;9.478;2023-06-22T07:36:55;5.03;;;3.83;;
36283;SDS011;56085;48.910;9.478;2023-06-22T07:39:21;7.05;;;3.95;;
36283;SDS011;56085;48.910;9.478;2023-06-22T07:41:50;6.43;;;3.80;;
36283;SDS011;56085;48.910;9.478;2023-06-22T07:44:16;5.50;;;3.70;;
36283;SDS011;56085;48.910;9.478;2023-06-22T07:46:41;5.93;;;3.30;;
36283;SDS011;56085;48.910;9.478;2023-06-22T07:49:06;8.17;;;3.60;;
36283;SDS011;56085;48.910;9.478;2023-06-22T07:51:33;7.30;;;3.90;;
36283;SDS011;56085;48.910;9.478;2023-06-22T07:53:58;6.80;;;4.00;;
36283;SDS011;56085;48.910;9.478;2023-06-22T07:56:23;8.55;;;4.32;;
36283;SDS011;56085;48.910;9.478;2023-06-22T07:58:49;15.95;;;9.32;;
36283;SDS011;56085;48.910;9.478;2023-06-22T08:01:14;13.05;;;8.55;;
36283;SDS011;56085;48.910;9.478;2023-06-22T08:03:40;13.18;;;9.93;;
36283;SDS011;56085;48.910;9.478;2023-06-22T08:06:05;8.80;;;6.45;;
36283;SDS011;56085;48.910;9.478;2023-06-22T08:08:33;10.98;;;5.82;;
36283;SDS011;56085;48.910;9.478;2023-06-22T08:10:59;7.63;;;4.97;;
36283;SDS011;56085;48.910;9.478;2023-06-22T08:13:24;9.75;;;4.88;;
36283;SDS011;56085;48.910;9.478;2023-06-22T08:15:50;6.05;;;3.90;;
36283;SDS011;56085;48.910;9.478;2023-06-22T08:18:15;6.25;;;3.53;;
36283;SDS011;56085;48.910;9.478;2023-06-22T08:20:41;8.20;;;4.20;;
36283;SDS011;56085;48.910;9.478;2023-06-22T08:23:07;7.22;;;3.70;;
36283;SDS011;56085;48.910;9.478;2023-06-22T08:25:33;6.68;;;3.42;;
36283;SDS011;56085;48.910;9.478;2023-06-22T08:27:59;7.30;;;3.92;;
36283;SDS011;56085;48.910;9.478;2023-06-22T08:30:25;4.95;;;3.15;;
36283;SDS011;56085;48.910;9.478;2023-06-22T08:32:50;6.72;;;3.63;;
36283;SDS011;56085;48.910;9.478;2023-06-22T08:35:15;8.00;;;3.45;;
36283;SDS011;56085;48.910;9.478;2023-06-22T08:37:41;6.63;;;3.42;;
36283;SDS011;56085;48.910;9.478;2023-06-22T08:40:09;7.82;;;3.45;;
36283;SDS011;56085;48.910;9.478;2023-06-22T08:42:39;9.40;;;3.63;;
36283;SDS011;56085;48.910;9.478;2023-06-22T08:45:05;8.00;;;3.58;;
36283;SDS011;56085;48.910;9.478;2023-06-22T08:47:31;4.85;;;3.20;;
36283;SDS011;56085;48.910;9.478;2023-06-22T08:49:57;5.05;;;3.15;;
36283;SDS011;56085;48.910;9.478;2023-06-22T08:52:22;6.80;;;4.07;;
36283;SDS011;56085;48.910;9.478;2023-06-22T08:54:48;6.68;;;3.40;;
36283;SDS011;56085;48.910;9.478;2023-06-22T08:57:13;6.63;;;3.40;;
36283;SDS011;56085;48.910;9.478;2023-06-22T08:59:39;9.97;;;3.83;;
36283;SDS011;56085;48.910;9.478;2023-06-22T09:02:05;6.25;;;3.42;;
36283;SDS011;56085;48.910;9.478;2023-06-22T09:04:30;8.25;;;3.80;;
36283;SDS011;56085;48.910;9.478;2023-06-22T09:06:59;8.93;;;3.63;;
36283;SDS011;56085;48.910;9.478;2023-06-22T09:09:25;8.45;;;3.95;;
36283;SDS011;56085;48.910;9.478;2023-06-22T09:11:50;7.23;;;3.77;;
36283;SDS011;56085;48.910;9.478;2023-06-22T09:14:15;9.27;;;4.40;;
36283;SDS011;56085;48.910;9.478;2023-06-22T09:16:41;6.80;;;4.15;;
36283;SDS011;56085;48.910;9.478;2023-06-22T09:19:06;6.88;;;3.80;;
36283;SDS011;56085;48.910;9.478;2023-06-22T09:21:31;9.80;;;3.60;;
36283;SDS011;56085;48.910;9.478;2023-06-22T09:23:57;5.45;;;3.22;;
36283;SDS011;56085;48.910;9.478;2023-06-22T09:26:22;6.53;;;3.83;;
36283;SDS011;56085;48.910;9.478;2023-06-22T09:28:48;6.18;;;3.70;;
36283;SDS011;56085;48.910;9.478;2023-06-22T09:31:14;5.97;;;3.65;;
36283;SDS011;56085;48.910;9.478;2023-06-22T09:33:41;5.70;;;3.72;;
36283;SDS011;56085;48.910;9.478;2023-06-22T09:36:07;7.47;;;3.72;;
36283;SDS011;56085;48.910;9.478;2023-06-22T09:38:36;5.82;;;3.50;;
36283;SDS011;56085;48.910;9.478;2023-06-22T09:41:01;5.25;;;3.53;;
36283;SDS011;56085;48.910;9.478;2023-06-22T09:43:27;6.82;;;3.65;;
36283;SDS011;56085;48.910;9.478;2023-06-22T09:45:52;8.00;;;3.50;;
36283;SDS011;56085;48.910;9.478;2023-06-22T09:48:18;7.57;;;4.00;;
36283;SDS011;56085;48.910;9.478;2023-06-22T09:50:43;8.30;;;3.58;;
36283;SDS011;56085;48.910;9.478;2023-06-22T09:53:08;8.57;;;3.92;;
36283;SDS011;56085;48.910;9.478;2023-06-22T09:55:34;7.85;;;3.75;;
36283;SDS011;56085;48.910;9.478;2023-06-22T09:57:59;7.40;;;3.83;;
36283;SDS011;56085;48.910;9.478;2023-06-22T10:00:24;8.68;;;4.32;;
36283;SDS011;56085;48.910;9.478;2023-06-22T10:02:51;8.02;;;4.22;;
36283;SDS011;56085;48.910;9.478;2023-06-22T10:05:17;6.93;;;3.83;;
36283;SDS011;56085;48.910;9.478;2023-06-22T10:07:42;12.70;;;4.20;;
36283;SDS011;56085;48.910;9.478;2023-06-22T10:10:08;11.40;;;4.40;;
36283;SDS011;56085;48.910;9.478;2023-06-22T10:12:34;7.30;;;4.22;;
36283;SDS011;56085;48.910;9.478;2023-06-22T10:15:00;7.63;;;3.72;;
36283;SDS011;56085;48.910;9.478;2023-06-22T10:17:25;9.27;;;4.55;;
36283;SDS011;56085;48.910;9.478;2023-06-22T10:19:50;14.23;;;4.30;;
36283;SDS011;56085;48.910;9.478;2023-06-22T10:22:16;8.90;;;4.33;;
36283;SDS011;56085;48.910;9.478;2023-06-22T10:24:41;8.33;;;3.63;;
36283;SDS011;56085;48.910;9.478;2023-06-22T10:27:10;5.68;;;3.72;;
36283;SDS011;56085;48.910;9.478;2023-06-22T10:29:35;7.78;;;4.40;;
36283;SDS011;56085;48.910;9.478;2023-06-22T10:32:01;9.00;;;3.60;;
36283;SDS011;56085;48.910;9.478;2023-06-22T10:34:27;6.47;;;3.85;;
36283;SDS011;56085;48.910;9.478;2023-06-22T10:36:52;8.05;;;4.05;;
36283;SDS011;56085;48.910;9.478;2023-06-22T10:39:18;6.28;;;3.38;;
36283;SDS011;56085;48.910;9.478;2023-06-22T10:41:43;8.23;;;3.72;;
36283;SDS011;56085;48.910;9.478;2023-06-22T10:44:08;9.57;;;3.72;;
36283;SDS011;56085;48.910;9.478;2023-06-22T10:46:34;8.82;;;4.40;;
36283;SDS011;56085;48.910;9.478;2023-06-22T10:48:59;10.00;;;4.28;;
36283;SDS011;56085;48.910;9.478;2023-06-22T10:51:24;9.75;;;3.42;;
36283;SDS011;56085;48.910;9.478;2023-06-22T10:53:50;13.73;;;4.40;;
36283;SDS011;56085;48.910;9.478;2023-06-22T10:56:16;7.13;;;4.03;;
36283;SDS011;56085;48.910;9.478;2023-06-22T10:58:41;9.77;;;4.05;;
36283;SDS011;56085;48.910;9.478;2023-06-22T11:01:06;5.97;;;3.53;;
36283;SDS011;56085;48.910;9.478;2023-06-22T11:03:31;8.97;;;3.87;;
36283;SDS011;56085;48.910;9.478;2023-06-22T11:05:57;6.83;;;3.90;;
36283;SDS011;56085;48.910;9.478;2023-06-22T11:08:22;8.73;;;3.97;;
36283;SDS011;56085;48.910;9.478;2023-06-22T11:10:47;8.97;;;3.90;;
36283;SDS011;56085;48.910;9.478;2023-06-22T11:13:13;9.82;;;3.85;;
36283;SDS011;56085;48.910;9.478;2023-06-22T11:15:38;9.52;;;5.47;;
36283;SDS011;56085;48.910;9.478;2023-06-22T11:18:04;9.23;;;5.57;;
36283;SDS011;56085;48.910;9.478;2023-06-22T11:20:30;11.13;;;5.85;;
36283;SDS011;56085;48.910;9.478;2023-06-22T11:22:55;10.00;;;5.25;;
36283;SDS011;56085;48.910;9.478;2023-06-22T11:25:21;10.80;;;4.77;;
36283;SDS011;56085;48.910;9.478;2023-06-22T11:27:46;10.25;;;4.25;;
36283;SDS011;56085;48.910;9.478;2023-06-22T11:30:12;10.30;;;5.20;;
36283;SDS011;56085;48.910;9.478;2023-06-22T11:32:37;8.30;;;3.80;;
36283;SDS011;56085;48.910;9.478;2023-06-22T11:35:02;9.88;;;4.28;;
36283;SDS011;56085;48.910;9.478;2023-06-22T11:37:28;8.13;;;3.60;;
36283;SDS011;56085;48.910;9.478;2023-06-22T11:39:53;10.73;;;4.03;;
36283;SDS011;56085;48.910;9.478;2023-06-22T11:42:20;10.70;;;3.75;;
36283;SDS011;56085;48.910;9.478;2023-06-22T11:44:45;8.07;;;3.65;;
36283;SDS011;56085;48.910;9.478;2023-06-22T11:47:10;6.38;;;4.07;;
36283;SDS011;56085;48.910;9.478;2023-06-22T11:49:36;9.82;;;3.95;;
36283;SDS011;56085;48.910;9.478;2023-06-22T11:52:01;8.40;;;4.05;;
36283;SDS011;56085;48.910;9.478;2023-06-22T11:54:26;9.70;;;4.25;;
36283;SDS011;56085;48.910;9.478;2023-06-22T11:56:52;9.83;;;3.80;;
36283;SDS011;56085;48.910;9.478;2023-06-22T11:59:17;7.00;;;3.73;;
36283;SDS011;56085;48.910;9.478;2023-06-22T12:01:43;7.63;;;4.28;;
36283;SDS011;56085;48.910;9.478;2023-06-22T12:04:08;12.18;;;3.97;;
36283;SDS011;56085;48.910;9.478;2023-06-22T12:06:37;9.70;;;4.30;;
36283;SDS011;56085;48.910;9.478;2023-06-22T12:09:03;9.65;;;4.43;;
36283;SDS011;56085;48.910;9.478;2023-06-22T12:11:29;8.73;;;4.05;;
36283;SDS011;56085;48.910;9.478;2023-06-22T12:13:55;12.27;;;4.18;;
36283;SDS011;56085;48.910;9.478;2023-06-22T12:16:20;8.18;;;3.58;;
36283;SDS011;56085;48.910;9.478;2023-06-22T12:18:46;8.43;;;4.25;;
36283;SDS011;56085;48.910;9.478;2023-06-22T12:21:12;12.95;;;4.07;;
36283;SDS011;56085;48.910;9.478;2023-06-22T12:23:37;8.30;;;4.00;;
36283;SDS011;56085;48.910;9.478;2023-06-22T12:26:02;12.07;;;4.27;;
36283;SDS011;56085;48.910;9.478;2023-06-22T12:28:28;8.07;;;4.07;;
36283;SDS011;56085;48.910;9.478;2023-06-22T12:30:53;18.17;;;5.03;;
36283;SDS011;56085;48.910;9.478;2023-06-22T12:33:18;7.10;;;3.63;;
36283;SDS011;56085;48.910;9.478;2023-06-22T12:35:43;11.33;;;4.40;;
36283;SDS011;56085;48.910;9.478;2023-06-22T12:38:10;8.73;;;4.55;;
36283;SDS011;56085;48.910;9.478;2023-06-22T12:40:35;8.80;;;4.13;;
36283;SDS011;56085;48.910;9.478;2023-06-22T12:43:01;12.90;;;4.32;;
36283;SDS011;56085;48.910;9.478;2023-06-22T12:45:27;10.10;;;4.22;;
36283;SDS011;56085;48.910;9.478;2023-06-22T12:47:54;10.30;;;4.47;;
36283;SDS011;56085;48.910;9.478;2023-06-22T12:50:19;8.18;;;3.92;;
36283;SDS011;56085;48.910;9.478;2023-06-22T12:52:44;11.90;;;4.72;;
36283;SDS011;56085;48.910;9.478;2023-06-22T12:55:10;11.27;;;3.78;;
36283;SDS011;56085;48.910;9.478;2023-06-22T12:57:35;10.20;;;5.13;;
36283;SDS011;56085;48.910;9.478;2023-06-22T13:00:01;11.10;;;4.72;;
36283;SDS011;56085;48.910;9.478;2023-06-22T13:02:26;10.82;;;4.35;;
36283;SDS011;56085;48.910;9.478;2023-06-22T13:04:51;8.63;;;3.97;;
36283;SDS011;56085;48.910;9.478;2023-06-22T13:07:17;8.75;;;4.53;;
36283;SDS011;56085;48.910;9.478;2023-06-22T13:09:42;9.10;;;4.93;;
36283;SDS011;56085;48.910;9.478;2023-06-22T13:12:07;16.83;;;4.90;;
36283;SDS011;56085;48.910;9.478;2023-06-22T13:14:33;9.93;;;4.88;;
36283;SDS011;56085;48.910;9.478;2023-06-22T13:16:58;9.43;;;4.25;;
36283;SDS011;56085;48.910;9.478;2023-06-22T13:19:23;8.23;;;4.67;;
36283;SDS011;56085;48.910;9.478;2023-06-22T13:21:49;8.82;;;4.80;;
36283;SDS011;56085;48.910;9.478;2023-06-22T13:24:14;9.20;;;4.72;;
36283;SDS011;56085;48.910;9.478;2023-06-22T13:26:41;7.03;;;4.05;;
36283;SDS011;56085;48.910;9.478;2023-06-22T13:29:06;11.07;;;5.13;;
36283;SDS011;56085;48.910;9.478;2023-06-22T13:31:31;7.82;;;4.32;;
36283;SDS011;56085;48.910;9.478;2023-06-22T13:33:57;8.03;;;4.70;;
36283;SDS011;56085;48.910;9.478;2023-06-22T13:36:22;14.33;;;4.77;;
36283;SDS011;56085;48.910;9.478;2023-06-22T13:38:48;8.73;;;4.97;;
36283;SDS011;56085;48.910;9.478;2023-06-22T13:41:13;12.05;;;4.40;;
36283;SDS011;56085;48.910;9.478;2023-06-22T13:43:38;8.20;;;4.32;;
36283;SDS011;56085;48.910;9.478;2023-06-22T13:46:04;9.07;;;4.23;;
36283;SDS011;56085;48.910;9.478;2023-06-22T13:48:30;7.63;;;4.30;;
36283;SDS011;56085;48.910;9.478;2023-06-22T13:50:55;11.38;;;4.53;;
36283;SDS011;56085;48.910;9.478;2023-06-22T13:53:21;10.57;;;4.45;;
36283;SDS011;56085;48.910;9.478;2023-06-22T13:55:46;7.60;;;4.67;;
36283;SDS011;56085;48.910;9.478;2023-06-22T13:58:12;13.50;;;5.28;;
36283;SDS011;56085;48.910;9.478;2023-06-22T14:00:38;9.25;;;4.63;;
36283;SDS011;56085;48.910;9.478;2023-06-22T14:03:03;8.03;;;4.40;;
36283;SDS011;56085;48.910;9.478;2023-06-22T14:05:28;9.27;;;4.70;;
36283;SDS011;56085;48.910;9.478;2023-06-22T14:07:53;8.30;;;4.32;;
36283;SDS011;56085;48.910;9.478;2023-06-22T14:10:19;9.60;;;5.10;;
36283;SDS011;56085;48.910;9.478;2023-06-22T14:12:44;8.63;;;4.30;;
36283;SDS011;56085;48.910;9.478;2023-06-22T14:15:10;10.13;;;4.32;;
36283;SDS011;56085;48.910;9.478;2023-06-22T14:17:35;9.57;;;4.65;;
36283;SDS011;56085;48.910;9.478;2023-06-22T14:20:00;12.43;;;4.93;;
36283;SDS011;56085;48.910;9.478;2023-06-22T14:22:25;9.40;;;5.13;;
36283;SDS011;56085;48.910;9.478;2023-06-22T14:24:54;8.43;;;4.28;;
36283;SDS011;56085;48.910;9.478;2023-06-22T14:27:20;9.27;;;4.60;;
36283;SDS011;56085;48.910;9.478;2023-06-22T14:29:46;11.05;;;4.40;;
36283;SDS011;56085;48.910;9.478;2023-06-22T14:32:11;12.13;;;5.90;;
36283;SDS011;56085;48.910;9.478;2023-06-22T14:34:36;9.32;;;4.68;;
36283;SDS011;56085;48.910;9.478;2023-06-22T14:37:04;11.23;;;5.00;;
36283;SDS011;56085;48.910;9.478;2023-06-22T14:39:34;8.88;;;4.72;;
36283;SDS011;56085;48.910;9.478;2023-06-22T14:42:00;8.32;;;4.53;;
36283;SDS011;56085;48.910;9.478;2023-06-22T14:44:25;7.75;;;4.45;;
36283;SDS011;56085;48.910;9.478;2023-06-22T14:46:51;8.20;;;4.00;;